sensor_id;sensor_type;location;lat;lon;timestamp;P1;durP1;ratioP1;P2;durP2;ratioP2
19301;SDS011;9785;59.362;12.152;2024-03-22T00:00:11;1.60;;;1.50;;
19301;SDS011;9785;59.362;12.152;2024-03-22T00:02:39;1.50;;;1.40;;
19301;SDS011;9785;59.362;12.152;2024-03-22T00:05:06;1.67;;;1.57;;
19301;SDS011;9785;59.362;12.152;2024-03-22T00:07:33;1.43;;;1.33;;
19301;SDS011;9785;59.362;12.152;2024-03-22T00:10:01;1.50;;;1.40;;
19301;SDS011;9785;59.362;12.152;2024-03-22T00:12:29;1.47;;;1.37;;
19301;SDS011;9785;59.362;12.152;2024-03-22T00:14:55;1.07;;;1.07;;
19301;SDS011;9785;59.362;12.152;2024-03-22T00:17:23;1.33;;;1.33;;
19301;SDS011;9785;59.362;12.152;2024-03-22T00:19:49;1.50;;;1.40;;
19301;SDS011;9785;59.362;12.152;2024-03-22T00:22:17;1.20;;;1.20;;
19301;SDS011;9785;59.362;12.152;2024-03-22T00:24:44;1.43;;;1.43;;
19301;SDS011;9785;59.362;12.152;2024-03-22T00:27:13;1.30;;;1.30;;
19301;SDS011;9785;59.362;12.152;2024-03-22T00:29:40;1.47;;;1.47;;
19301;SDS011;9785;59.362;12.152;2024-03-22T00:32:07;1.30;;;1.20;;
19301;SDS011;9785;59.362;12.152;2024-03-22T00:34:34;1.23;;;1.20;;
19301;SDS011;9785;59.362;12.152;2024-03-22T00:37:01;1.10;;;1.10;;
19301;SDS011;9785;59.362;12.152;2024-03-22T00:39:28;1.27;;;1.23;;
19301;SDS011;9785;59.362;12.152;2024-03-22T00:41:55;1.17;;;1.17;;
19301;SDS011;9785;59.362;12.152;2024-03-22T00:44:23;1.83;;;1.30;;
19301;SDS011;9785;59.362;12.152;2024-03-22T00:46:51;1.30;;;1.30;;
19301;SDS011;9785;59.362;12.152;2024-03-22T00:49:17;1.20;;;1.20;;
19301;SDS011;9785;59.362;12.152;2024-03-22T00:51:45;1.40;;;1.30;;
19301;SDS011;9785;59.362;12.152;2024-03-22T00:54:12;1.27;;;1.27;;
19301;SDS011;9785;59.362;12.152;2024-03-22T00:56:39;1.40;;;1.30;;
19301;SDS011;9785;59.362;12.152;2024-03-22T00:59:06;1.67;;;1.57;;
19301;SDS011;9785;59.362;12.152;2024-03-22T01:01:34;1.30;;;1.20;;
19301;SDS011;9785;59.362;12.152;2024-03-22T01:04:04;1.47;;;1.37;;
19301;SDS011;9785;59.362;12.152;2024-03-22T01:06:31;1.40;;;1.30;;
19301;SDS011;9785;59.362;12.152;2024-03-22T01:08:59;1.17;;;1.10;;
19301;SDS011;9785;59.362;12.152;2024-03-22T01:11:25;1.17;;;1.17;;
19301;SDS011;9785;59.362;12.152;2024-03-22T01:13:53;1.33;;;1.30;;
19301;SDS011;9785;59.362;12.152;2024-03-22T01:16:19;1.20;;;1.20;;
19301;SDS011;9785;59.362;12.152;2024-03-22T01:18:48;1.07;;;1.03;;
19301;SDS011;9785;59.362;12.152;2024-03-22T01:21:15;1.40;;;1.30;;
19301;SDS011;9785;59.362;12.152;2024-03-22T01:23:42;1.60;;;1.20;;
19301;SDS011;9785;59.362;12.152;2024-03-22T01:26:09;1.13;;;1.10;;
19301;SDS011;9785;59.362;12.152;2024-03-22T01:28:36;1.00;;;1.00;;
19301;SDS011;9785;59.362;12.152;2024-03-22T01:31:03;0.90;;;0.90;;
19301;SDS011;9785;59.362;12.152;2024-03-22T01:33:30;1.13;;;1.03;;
19301;SDS011;9785;59.362;12.152;2024-03-22T01:35:58;1.10;;;1.10;;
19301;SDS011;9785;59.362;12.152;2024-03-22T01:38:26;1.10;;;1.10;;
19301;SDS011;9785;59.362;12.152;2024-03-22T01:40:53;1.17;;;1.17;;
19301;SDS011;9785;59.362;12.152;2024-03-22T01:43:21;1.20;;;1.10;;
19301;SDS011;9785;59.362;12.152;2024-03-22T01:45:47;1.10;;;1.10;;
19301;SDS011;9785;59.362;12.152;2024-03-22T01:48:15;1.00;;;1.00;;
19301;SDS011;9785;59.362;12.152;2024-03-22T01:50:41;1.17;;;1.10;;
19301;SDS011;9785;59.362;12.152;2024-03-22T01:53:11;1.30;;;1.20;;
19301;SDS011;9785;59.362;12.152;2024-03-22T01:55:38;1.50;;;1.10;;
19301;SDS011;9785;59.362;12.152;2024-03-22T01:58:05;1.03;;;1.03;;
19301;SDS011;9785;59.362;12.152;2024-03-22T02:00:32;1.13;;;1.13;;
19301;SDS011;9785;59.362;12.152;2024-03-22T02:03:00;1.20;;;1.10;;
19301;SDS011;9785;59.362;12.152;2024-03-22T02:05:26;1.67;;;1.07;;
19301;SDS011;9785;59.362;12.152;2024-03-22T02:07:54;1.00;;;1.00;;
19301;SDS011;9785;59.362;12.152;2024-03-22T02:10:22;1.97;;;1.10;;
19301;SDS011;9785;59.362;12.152;2024-03-22T02:12:49;1.00;;;1.00;;
19301;SDS011;9785;59.362;12.152;2024-03-22T02:15:16;0.80;;;0.80;;
19301;SDS011;9785;59.362;12.152;2024-03-22T02:17:44;1.00;;;1.00;;
19301;SDS011;9785;59.362;12.152;2024-03-22T02:20:10;0.90;;;0.90;;
19301;SDS011;9785;59.362;12.152;2024-03-22T02:22:38;1.17;;;1.10;;
19301;SDS011;9785;59.362;12.152;2024-03-22T02:25:06;0.97;;;0.97;;
19301;SDS011;9785;59.362;12.152;2024-03-22T02:27:34;0.83;;;0.83;;
19301;SDS011;9785;59.362;12.152;2024-03-22T02:30:01;0.83;;;0.83;;
19301;SDS011;9785;59.362;12.152;2024-03-22T02:32:28;0.70;;;0.70;;
19301;SDS011;9785;59.362;12.152;2024-03-22T02:34:55;0.87;;;0.87;;
19301;SDS011;9785;59.362;12.152;2024-03-22T02:37:22;0.70;;;0.70;;
19301;SDS011;9785;59.362;12.152;2024-03-22T02:39:49;0.70;;;0.70;;
19301;SDS011;9785;59.362;12.152;2024-03-22T02:42:18;0.60;;;0.60;;
19301;SDS011;9785;59.362;12.152;2024-03-22T02:44:44;1.33;;;0.70;;
19301;SDS011;9785;59.362;12.152;2024-03-22T02:47:12;0.67;;;0.67;;
19301;SDS011;9785;59.362;12.152;2024-03-22T02:49:39;1.80;;;0.80;;
19301;SDS011;9785;59.362;12.152;2024-03-22T02:52:07;0.63;;;0.63;;
19301;SDS011;9785;59.362;12.152;2024-03-22T02:54:33;0.40;;;0.40;;
19301;SDS011;9785;59.362;12.152;2024-03-22T02:57:01;0.47;;;0.47;;
19301;SDS011;9785;59.362;12.152;2024-03-22T02:59:29;0.70;;;0.70;;
19301;SDS011;9785;59.362;12.152;2024-03-22T03:01:56;1.23;;;0.97;;
19301;SDS011;9785;59.362;12.152;2024-03-22T03:04:23;0.67;;;0.67;;
19301;SDS011;9785;59.362;12.152;2024-03-22T03:06:50;2.37;;;0.50;;
19301;SDS011;9785;59.362;12.152;2024-03-22T03:09:17;0.70;;;0.70;;
19301;SDS011;9785;59.362;12.152;2024-03-22T03:11:44;0.60;;;0.60;;
19301;SDS011;9785;59.362;12.152;2024-03-22T03:14:11;0.53;;;0.53;;
19301;SDS011;9785;59.362;12.152;2024-03-22T03:16:40;0.67;;;0.67;;
19301;SDS011;9785;59.362;12.152;2024-03-22T03:19:06;0.67;;;0.67;;
19301;SDS011;9785;59.362;12.152;2024-03-22T03:21:34;0.50;;;0.50;;
19301;SDS011;9785;59.362;12.152;2024-03-22T03:24:00;0.60;;;0.60;;
19301;SDS011;9785;59.362;12.152;2024-03-22T03:26:28;0.67;;;0.67;;
19301;SDS011;9785;59.362;12.152;2024-03-22T03:28:54;0.70;;;0.70;;
19301;SDS011;9785;59.362;12.152;2024-03-22T03:31:22;0.60;;;0.60;;
19301;SDS011;9785;59.362;12.152;2024-03-22T03:33:49;1.77;;;0.80;;
19301;SDS011;9785;59.362;12.152;2024-03-22T03:36:17;1.37;;;0.90;;
19301;SDS011;9785;59.362;12.152;2024-03-22T03:38:43;4.43;;;0.90;;
19301;SDS011;9785;59.362;12.152;2024-03-22T03:41:11;0.80;;;0.80;;
19301;SDS011;9785;59.362;12.152;2024-03-22T03:43:37;7.23;;;0.90;;
19301;SDS011;9785;59.362;12.152;2024-03-22T03:46:05;33.30;;;2.27;;
19301;SDS011;9785;59.362;12.152;2024-03-22T03:48:31;6.50;;;1.10;;
19301;SDS011;9785;59.362;12.152;2024-03-22T03:51:00;42.53;;;2.30;;
19301;SDS011;9785;59.362;12.152;2024-03-22T03:53:28;24.43;;;1.70;;
19301;SDS011;9785;59.362;12.152;2024-03-22T03:55:56;37.50;;;3.00;;
19301;SDS011;9785;59.362;12.152;2024-03-22T03:58:22;50.27;;;3.03;;
19301;SDS011;9785;59.362;12.152;2024-03-22T04:00:50;67.53;;;3.97;;
19301;SDS011;9785;59.362;12.152;2024-03-22T04:03:16;27.00;;;1.90;;
19301;SDS011;9785;59.362;12.152;2024-03-22T04:05:44;18.07;;;1.47;;
19301;SDS011;9785;59.362;12.152;2024-03-22T04:08:12;10.03;;;1.27;;
19301;SDS011;9785;59.362;12.152;2024-03-22T04:10:39;26.13;;;1.70;;
19301;SDS011;9785;59.362;12.152;2024-03-22T04:13:06;58.03;;;3.07;;
19301;SDS011;9785;59.362;12.152;2024-03-22T04:15:34;1.07;;;0.90;;
19301;SDS011;9785;59.362;12.152;2024-03-22T04:18:01;1.80;;;0.90;;
19301;SDS011;9785;59.362;12.152;2024-03-22T04:20:28;0.93;;;0.93;;
19301;SDS011;9785;59.362;12.152;2024-03-22T04:22:55;5.67;;;1.30;;
19301;SDS011;9785;59.362;12.152;2024-03-22T04:25:23;2.30;;;1.60;;
19301;SDS011;9785;59.362;12.152;2024-03-22T04:27:50;6.90;;;2.07;;
19301;SDS011;9785;59.362;12.152;2024-03-22T04:30:17;8.43;;;2.07;;
19301;SDS011;9785;59.362;12.152;2024-03-22T04:32:45;23.57;;;2.80;;
19301;SDS011;9785;59.362;12.152;2024-03-22T04:35:13;8.80;;;2.30;;
19301;SDS011;9785;59.362;12.152;2024-03-22T04:37:39;53.70;;;4.17;;
19301;SDS011;9785;59.362;12.152;2024-03-22T04:40:07;87.00;;;5.27;;
19301;SDS011;9785;59.362;12.152;2024-03-22T04:42:37;60.93;;;4.67;;
19301;SDS011;9785;59.362;12.152;2024-03-22T04:45:05;222.63;;;10.40;;
19301;SDS011;9785;59.362;12.152;2024-03-22T04:47:33;37.50;;;3.77;;
19301;SDS011;9785;59.362;12.152;2024-03-22T04:49:59;56.83;;;5.53;;
19301;SDS011;9785;59.362;12.152;2024-03-22T04:52:27;92.37;;;7.00;;
19301;SDS011;9785;59.362;12.152;2024-03-22T04:54:53;29.70;;;4.07;;
19301;SDS011;9785;59.362;12.152;2024-03-22T04:57:21;110.27;;;7.77;;
19301;SDS011;9785;59.362;12.152;2024-03-22T04:59:49;24.97;;;4.13;;
19301;SDS011;9785;59.362;12.152;2024-03-22T05:02:17;42.40;;;4.37;;
19301;SDS011;9785;59.362;12.152;2024-03-22T05:04:43;99.40;;;6.67;;
19301;SDS011;9785;59.362;12.152;2024-03-22T05:07:10;15.10;;;4.47;;
19301;SDS011;9785;59.362;12.152;2024-03-22T05:09:37;24.43;;;4.60;;
19301;SDS011;9785;59.362;12.152;2024-03-22T05:12:05;17.47;;;4.37;;
19301;SDS011;9785;59.362;12.152;2024-03-22T05:14:32;59.77;;;6.73;;
19301;SDS011;9785;59.362;12.152;2024-03-22T05:17:00;14.27;;;4.70;;
19301;SDS011;9785;59.362;12.152;2024-03-22T05:19:28;53.33;;;5.47;;
19301;SDS011;9785;59.362;12.152;2024-03-22T05:21:55;136.40;;;9.20;;
19301;SDS011;9785;59.362;12.152;2024-03-22T05:24:23;183.70;;;12.03;;
19301;SDS011;9785;59.362;12.152;2024-03-22T05:26:49;169.53;;;16.03;;
19301;SDS011;9785;59.362;12.152;2024-03-22T05:29:17;69.27;;;8.20;;
19301;SDS011;9785;59.362;12.152;2024-03-22T05:31:47;56.17;;;6.93;;
19301;SDS011;9785;59.362;12.152;2024-03-22T05:34:15;42.07;;;5.23;;
19301;SDS011;9785;59.362;12.152;2024-03-22T05:36:42;41.57;;;5.07;;
19301;SDS011;9785;59.362;12.152;2024-03-22T05:39:10;60.27;;;6.53;;
19301;SDS011;9785;59.362;12.152;2024-03-22T05:41:37;34.40;;;5.27;;
19301;SDS011;9785;59.362;12.152;2024-03-22T05:44:04;35.40;;;5.67;;
19301;SDS011;9785;59.362;12.152;2024-03-22T05:46:31;44.37;;;5.23;;
19301;SDS011;9785;59.362;12.152;2024-03-22T05:48:58;22.73;;;5.07;;
19301;SDS011;9785;59.362;12.152;2024-03-22T05:51:26;14.17;;;4.73;;
19301;SDS011;9785;59.362;12.152;2024-03-22T05:53:55;46.67;;;6.00;;
19301;SDS011;9785;59.362;12.152;2024-03-22T05:56:22;14.27;;;4.33;;
19301;SDS011;9785;59.362;12.152;2024-03-22T05:58:49;13.33;;;4.23;;
19301;SDS011;9785;59.362;12.152;2024-03-22T06:01:16;10.47;;;4.13;;
19301;SDS011;9785;59.362;12.152;2024-03-22T06:03:43;8.07;;;4.00;;
19301;SDS011;9785;59.362;12.152;2024-03-22T06:06:10;11.17;;;3.93;;
19301;SDS011;9785;59.362;12.152;2024-03-22T06:08:39;8.10;;;4.30;;
19301;SDS011;9785;59.362;12.152;2024-03-22T06:11:07;9.73;;;4.40;;
19301;SDS011;9785;59.362;12.152;2024-03-22T06:13:34;6.47;;;3.27;;
19301;SDS011;9785;59.362;12.152;2024-03-22T06:16:01;12.53;;;4.30;;
19301;SDS011;9785;59.362;12.152;2024-03-22T06:18:30;10.20;;;3.80;;
19301;SDS011;9785;59.362;12.152;2024-03-22T06:20:57;11.23;;;3.23;;
19301;SDS011;9785;59.362;12.152;2024-03-22T06:23:24;10.17;;;3.53;;
19301;SDS011;9785;59.362;12.152;2024-03-22T06:25:52;7.43;;;3.70;;
19301;SDS011;9785;59.362;12.152;2024-03-22T06:28:20;11.40;;;3.77;;
19301;SDS011;9785;59.362;12.152;2024-03-22T06:30:46;9.07;;;4.23;;
19301;SDS011;9785;59.362;12.152;2024-03-22T06:33:14;8.00;;;3.60;;
19301;SDS011;9785;59.362;12.152;2024-03-22T06:35:41;8.48;;;3.47;;
19301;SDS011;9785;59.362;12.152;2024-03-22T06:38:09;10.20;;;4.07;;
19301;SDS011;9785;59.362;12.152;2024-03-22T06:40:35;11.27;;;4.30;;
19301;SDS011;9785;59.362;12.152;2024-03-22T06:43:04;11.07;;;4.33;;
19301;SDS011;9785;59.362;12.152;2024-03-22T06:45:31;9.27;;;3.83;;
19301;SDS011;9785;59.362;12.152;2024-03-22T06:47:58;9.23;;;4.13;;
19301;SDS011;9785;59.362;12.152;2024-03-22T06:50:25;10.43;;;3.63;;
19301;SDS011;9785;59.362;12.152;2024-03-22T06:52:52;13.10;;;4.20;;
19301;SDS011;9785;59.362;12.152;2024-03-22T06:55:20;9.00;;;3.47;;
19301;SDS011;9785;59.362;12.152;2024-03-22T06:57:48;7.13;;;3.47;;
19301;SDS011;9785;59.362;12.152;2024-03-22T07:00:17;10.73;;;3.83;;
19301;SDS011;9785;59.362;12.152;2024-03-22T07:02:44;11.37;;;3.57;;
19301;SDS011;9785;59.362;12.152;2024-03-22T07:05:11;6.03;;;2.97;;
19301;SDS011;9785;59.362;12.152;2024-03-22T07:07:38;5.90;;;3.37;;
19301;SDS011;9785;59.362;12.152;2024-03-22T07:10:05;5.07;;;1.87;;
19301;SDS011;9785;59.362;12.152;2024-03-22T07:12:33;8.27;;;3.43;;
19301;SDS011;9785;59.362;12.152;2024-03-22T07:14:59;9.73;;;3.50;;
19301;SDS011;9785;59.362;12.152;2024-03-22T07:17:29;11.10;;;3.67;;
19301;SDS011;9785;59.362;12.152;2024-03-22T07:19:55;7.60;;;3.37;;
19301;SDS011;9785;59.362;12.152;2024-03-22T07:22:24;8.70;;;3.80;;
19301;SDS011;9785;59.362;12.152;2024-03-22T07:24:50;8.30;;;3.37;;
19301;SDS011;9785;59.362;12.152;2024-03-22T07:27:18;8.57;;;3.33;;
19301;SDS011;9785;59.362;12.152;2024-03-22T07:29:44;7.87;;;2.87;;
19301;SDS011;9785;59.362;12.152;2024-03-22T07:32:12;8.47;;;2.80;;
19301;SDS011;9785;59.362;12.152;2024-03-22T07:34:40;9.53;;;3.60;;
19301;SDS011;9785;59.362;12.152;2024-03-22T07:37:07;9.57;;;2.90;;
19301;SDS011;9785;59.362;12.152;2024-03-22T07:39:34;14.97;;;3.57;;
19301;SDS011;9785;59.362;12.152;2024-03-22T07:42:01;12.23;;;3.30;;
19301;SDS011;9785;59.362;12.152;2024-03-22T07:44:28;8.60;;;3.50;;
19301;SDS011;9785;59.362;12.152;2024-03-22T07:46:55;6.70;;;2.70;;
19301;SDS011;9785;59.362;12.152;2024-03-22T07:49:22;9.57;;;3.30;;
19301;SDS011;9785;59.362;12.152;2024-03-22T07:51:51;6.53;;;3.20;;
19301;SDS011;9785;59.362;12.152;2024-03-22T07:54:18;11.73;;;3.33;;
19301;SDS011;9785;59.362;12.152;2024-03-22T07:56:46;12.23;;;3.40;;
19301;SDS011;9785;59.362;12.152;2024-03-22T07:59:12;8.23;;;2.97;;
19301;SDS011;9785;59.362;12.152;2024-03-22T08:01:40;8.57;;;2.87;;
19301;SDS011;9785;59.362;12.152;2024-03-22T08:04:06;7.43;;;3.47;;
19301;SDS011;9785;59.362;12.152;2024-03-22T08:06:34;6.67;;;3.30;;
19301;SDS011;9785;59.362;12.152;2024-03-22T08:09:02;12.53;;;3.60;;
19301;SDS011;9785;59.362;12.152;2024-03-22T08:11:29;14.87;;;2.83;;
19301;SDS011;9785;59.362;12.152;2024-03-22T08:13:56;13.83;;;3.30;;
19301;SDS011;9785;59.362;12.152;2024-03-22T08:16:27;12.00;;;3.07;;
19301;SDS011;9785;59.362;12.152;2024-03-22T08:18:54;14.10;;;3.20;;
19301;SDS011;9785;59.362;12.152;2024-03-22T08:21:22;4.70;;;2.60;;
19301;SDS011;9785;59.362;12.152;2024-03-22T08:23:48;4.30;;;3.07;;
19301;SDS011;9785;59.362;12.152;2024-03-22T08:26:17;6.87;;;2.80;;
19301;SDS011;9785;59.362;12.152;2024-03-22T08:28:44;4.03;;;2.57;;
19301;SDS011;9785;59.362;12.152;2024-03-22T08:31:11;12.37;;;2.90;;
19301;SDS011;9785;59.362;12.152;2024-03-22T08:33:38;9.33;;;3.00;;
19301;SDS011;9785;59.362;12.152;2024-03-22T08:36:05;6.77;;;2.73;;
19301;SDS011;9785;59.362;12.152;2024-03-22T08:38:32;5.30;;;1.83;;
19301;SDS011;9785;59.362;12.152;2024-03-22T08:41:00;10.07;;;3.00;;
19301;SDS011;9785;59.362;12.152;2024-03-22T08:43:28;5.93;;;2.67;;
19301;SDS011;9785;59.362;12.152;2024-03-22T08:45:56;6.97;;;2.37;;
19301;SDS011;9785;59.362;12.152;2024-03-22T08:48:23;6.37;;;2.80;;
19301;SDS011;9785;59.362;12.152;2024-03-22T08:50:50;13.47;;;2.97;;
19301;SDS011;9785;59.362;12.152;2024-03-22T08:53:17;6.13;;;2.60;;
19301;SDS011;9785;59.362;12.152;2024-03-22T08:55:45;10.40;;;3.13;;
19301;SDS011;9785;59.362;12.152;2024-03-22T08:58:12;11.13;;;2.30;;
19301;SDS011;9785;59.362;12.152;2024-03-22T09:00:41;7.53;;;2.90;;
19301;SDS011;9785;59.362;12.152;2024-03-22T09:03:08;7.63;;;3.10;;
19301;SDS011;9785;59.362;12.152;2024-03-22T09:05:35;9.43;;;2.93;;
19301;SDS011;9785;59.362;12.152;2024-03-22T09:08:02;10.70;;;2.70;;
19301;SDS011;9785;59.362;12.152;2024-03-22T09:10:30;12.03;;;2.73;;
19301;SDS011;9785;59.362;12.152;2024-03-22T09:12:56;9.57;;;2.80;;
19301;SDS011;9785;59.362;12.152;2024-03-22T09:15:24;6.60;;;2.57;;
19301;SDS011;9785;59.362;12.152;2024-03-22T09:17:52;12.10;;;2.60;;
19301;SDS011;9785;59.362;12.152;2024-03-22T09:20:20;9.90;;;2.57;;
19301;SDS011;9785;59.362;12.152;2024-03-22T09:22:46;7.20;;;2.50;;
19301;SDS011;9785;59.362;12.152;2024-03-22T09:25:14;7.60;;;2.50;;
19301;SDS011;9785;59.362;12.152;2024-03-22T09:27:41;8.60;;;2.57;;
19301;SDS011;9785;59.362;12.152;2024-03-22T09:30:08;16.50;;;2.87;;
19301;SDS011;9785;59.362;12.152;2024-03-22T09:32:35;9.83;;;2.50;;
19301;SDS011;9785;59.362;12.152;2024-03-22T09:35:04;11.40;;;2.67;;
19301;SDS011;9785;59.362;12.152;2024-03-22T09:37:31;7.80;;;2.80;;
19301;SDS011;9785;59.362;12.152;2024-03-22T09:39:59;7.83;;;2.30;;
19301;SDS011;9785;59.362;12.152;2024-03-22T09:42:26;11.00;;;2.50;;
19301;SDS011;9785;59.362;12.152;2024-03-22T09:44:55;9.53;;;2.40;;
19301;SDS011;9785;59.362;12.152;2024-03-22T09:47:22;10.43;;;2.70;;
19301;SDS011;9785;59.362;12.152;2024-03-22T09:49:52;8.50;;;2.60;;
19301;SDS011;9785;59.362;12.152;2024-03-22T09:52:20;3.77;;;1.80;;
19301;SDS011;9785;59.362;12.152;2024-03-22T09:54:47;4.43;;;2.30;;
19301;SDS011;9785;59.362;12.152;2024-03-22T09:57:14;5.90;;;1.77;;
19301;SDS011;9785;59.362;12.152;2024-03-22T09:59:42;6.77;;;3.10;;
19301;SDS011;9785;59.362;12.152;2024-03-22T10:02:10;8.23;;;1.90;;
19301;SDS011;9785;59.362;12.152;2024-03-22T10:04:38;6.30;;;2.20;;
19301;SDS011;9785;59.362;12.152;2024-03-22T10:07:05;8.30;;;2.33;;
19301;SDS011;9785;59.362;12.152;2024-03-22T10:09:35;6.77;;;2.40;;
19301;SDS011;9785;59.362;12.152;2024-03-22T10:12:01;11.30;;;2.67;;
19301;SDS011;9785;59.362;12.152;2024-03-22T10:14:29;6.00;;;2.37;;
19301;SDS011;9785;59.362;12.152;2024-03-22T10:16:57;9.57;;;2.57;;
19301;SDS011;9785;59.362;12.152;2024-03-22T10:19:25;5.00;;;2.13;;
19301;SDS011;9785;59.362;12.152;2024-03-22T10:21:59;8.83;;;2.13;;
19301;SDS011;9785;59.362;12.152;2024-03-22T10:24:26;8.10;;;2.07;;
19301;SDS011;9785;59.362;12.152;2024-03-22T10:26:55;9.07;;;1.83;;
19301;SDS011;9785;59.362;12.152;2024-03-22T10:29:23;10.67;;;2.60;;
19301;SDS011;9785;59.362;12.152;2024-03-22T10:31:50;12.63;;;3.37;;
19301;SDS011;9785;59.362;12.152;2024-03-22T10:34:17;9.97;;;3.10;;
19301;SDS011;9785;59.362;12.152;2024-03-22T10:36:44;11.10;;;2.77;;
19301;SDS011;9785;59.362;12.152;2024-03-22T10:39:15;6.83;;;2.20;;
19301;SDS011;9785;59.362;12.152;2024-03-22T10:41:42;11.40;;;3.07;;
19301;SDS011;9785;59.362;12.152;2024-03-22T10:44:11;5.23;;;1.50;;
19301;SDS011;9785;59.362;12.152;2024-03-22T10:46:38;12.73;;;2.50;;
19301;SDS011;9785;59.362;12.152;2024-03-22T10:49:09;15.67;;;3.17;;
19301;SDS011;9785;59.362;12.152;2024-03-22T10:51:37;11.70;;;2.70;;
19301;SDS011;9785;59.362;12.152;2024-03-22T10:54:05;8.10;;;1.73;;
19301;SDS011;9785;59.362;12.152;2024-03-22T10:56:32;13.63;;;3.60;;
19301;SDS011;9785;59.362;12.152;2024-03-22T10:59:02;13.20;;;2.90;;
19301;SDS011;9785;59.362;12.152;2024-03-22T11:01:31;12.27;;;2.93;;
19301;SDS011;9785;59.362;12.152;2024-03-22T11:04:05;11.23;;;2.40;;
19301;SDS011;9785;59.362;12.152;2024-03-22T11:06:32;9.10;;;2.53;;
19301;SDS011;9785;59.362;12.152;2024-03-22T11:09:00;9.40;;;2.40;;
19301;SDS011;9785;59.362;12.152;2024-03-22T11:11:27;14.57;;;2.73;;
19301;SDS011;9785;59.362;12.152;2024-03-22T11:13:56;11.47;;;2.53;;
19301;SDS011;9785;59.362;12.152;2024-03-22T11:16:23;9.37;;;2.40;;
19301;SDS011;9785;59.362;12.152;2024-03-22T11:18:53;13.70;;;2.53;;
19301;SDS011;9785;59.362;12.152;2024-03-22T11:21:19;7.83;;;2.23;;
19301;SDS011;9785;59.362;12.152;2024-03-22T11:23:47;10.67;;;2.30;;
19301;SDS011;9785;59.362;12.152;2024-03-22T11:26:13;18.90;;;2.73;;
19301;SDS011;9785;59.362;12.152;2024-03-22T11:28:41;15.77;;;2.67;;
19301;SDS011;9785;59.362;12.152;2024-03-22T11:31:08;16.47;;;3.00;;
19301;SDS011;9785;59.362;12.152;2024-03-22T11:33:37;18.27;;;2.70;;
19301;SDS011;9785;59.362;12.152;2024-03-22T11:36:06;11.27;;;1.70;;
19301;SDS011;9785;59.362;12.152;2024-03-22T11:38:33;19.13;;;1.67;;
19301;SDS011;9785;59.362;12.152;2024-03-22T11:41:00;11.77;;;2.33;;
19301;SDS011;9785;59.362;12.152;2024-03-22T11:43:29;10.87;;;2.27;;
19301;SDS011;9785;59.362;12.152;2024-03-22T11:45:56;14.60;;;2.40;;
19301;SDS011;9785;59.362;12.152;2024-03-22T11:48:23;11.97;;;2.30;;
19301;SDS011;9785;59.362;12.152;2024-03-22T11:50:50;10.03;;;2.03;;
19301;SDS011;9785;59.362;12.152;2024-03-22T11:53:19;8.23;;;1.80;;
19301;SDS011;9785;59.362;12.152;2024-03-22T11:55:46;15.27;;;3.17;;
19301;SDS011;9785;59.362;12.152;2024-03-22T11:58:13;11.77;;;1.83;;
19301;SDS011;9785;59.362;12.152;2024-03-22T12:00:41;6.53;;;1.93;;
19301;SDS011;9785;59.362;12.152;2024-03-22T12:03:09;8.37;;;2.10;;
19301;SDS011;9785;59.362;12.152;2024-03-22T12:05:35;8.47;;;1.77;;
19301;SDS011;9785;59.362;12.152;2024-03-22T12:08:03;9.63;;;1.60;;
19301;SDS011;9785;59.362;12.152;2024-03-22T12:10:31;7.57;;;1.17;;
19301;SDS011;9785;59.362;12.152;2024-03-22T12:12:59;8.10;;;1.97;;
19301;SDS011;9785;59.362;12.152;2024-03-22T12:15:25;5.93;;;1.90;;
19301;SDS011;9785;59.362;12.152;2024-03-22T12:17:53;13.43;;;2.20;;
19301;SDS011;9785;59.362;12.152;2024-03-22T12:20:19;15.20;;;2.27;;
19301;SDS011;9785;59.362;12.152;2024-03-22T12:22:47;8.80;;;1.90;;
19301;SDS011;9785;59.362;12.152;2024-03-22T12:25:13;12.57;;;2.17;;
19301;SDS011;9785;59.362;12.152;2024-03-22T12:27:42;12.90;;;2.37;;
19301;SDS011;9785;59.362;12.152;2024-03-22T12:30:10;7.70;;;2.20;;
19301;SDS011;9785;59.362;12.152;2024-03-22T12:32:38;12.87;;;1.90;;
19301;SDS011;9785;59.362;12.152;2024-03-22T12:35:05;8.53;;;1.70;;
19301;SDS011;9785;59.362;12.152;2024-03-22T12:37:33;10.30;;;1.93;;
19301;SDS011;9785;59.362;12.152;2024-03-22T12:40:01;8.87;;;1.93;;
19301;SDS011;9785;59.362;12.152;2024-03-22T12:42:29;7.00;;;1.07;;
19301;SDS011;9785;59.362;12.152;2024-03-22T12:44:57;6.97;;;2.00;;
19301;SDS011;9785;59.362;12.152;2024-03-22T12:47:24;11.00;;;2.37;;
19301;SDS011;9785;59.362;12.152;2024-03-22T12:49:51;10.60;;;2.33;;
19301;SDS011;9785;59.362;12.152;2024-03-22T12:52:18;15.70;;;2.30;;
19301;SDS011;9785;59.362;12.152;2024-03-22T12:54:45;8.47;;;1.97;;
19301;SDS011;9785;59.362;12.152;2024-03-22T12:57:13;8.37;;;2.00;;
19301;SDS011;9785;59.362;12.152;2024-03-22T12:59:39;15.23;;;2.60;;
19301;SDS011;9785;59.362;12.152;2024-03-22T13:02:08;12.23;;;3.20;;
19301;SDS011;9785;59.362;12.152;2024-03-22T13:04:35;13.07;;;2.10;;
19301;SDS011;9785;59.362;12.152;2024-03-22T13:07:03;11.93;;;1.93;;
19301;SDS011;9785;59.362;12.152;2024-03-22T13:09:30;11.37;;;2.10;;
19301;SDS011;9785;59.362;12.152;2024-03-22T13:11:57;9.17;;;2.50;;
19301;SDS011;9785;59.362;12.152;2024-03-22T13:14:24;13.53;;;2.20;;
19301;SDS011;9785;59.362;12.152;2024-03-22T13:16:53;12.13;;;1.83;;
19301;SDS011;9785;59.362;12.152;2024-03-22T13:19:21;16.10;;;2.53;;
19301;SDS011;9785;59.362;12.152;2024-03-22T13:21:49;12.60;;;2.50;;
19301;SDS011;9785;59.362;12.152;2024-03-22T13:24:16;12.87;;;2.87;;
19301;SDS011;9785;59.362;12.152;2024-03-22T13:26:44;13.63;;;2.60;;
19301;SDS011;9785;59.362;12.152;2024-03-22T13:29:10;8.10;;;2.20;;
19301;SDS011;9785;59.362;12.152;2024-03-22T13:31:39;11.73;;;1.80;;
19301;SDS011;9785;59.362;12.152;2024-03-22T13:34:05;12.80;;;2.20;;
19301;SDS011;9785;59.362;12.152;2024-03-22T13:36:34;11.83;;;2.23;;
19301;SDS011;9785;59.362;12.152;2024-03-22T13:39:03;9.97;;;2.43;;
19301;SDS011;9785;59.362;12.152;2024-03-22T13:41:30;10.67;;;1.90;;
19301;SDS011;9785;59.362;12.152;2024-03-22T13:43:57;13.23;;;2.20;;
19301;SDS011;9785;59.362;12.152;2024-03-22T13:46:29;15.97;;;2.70;;
19301;SDS011;9785;59.362;12.152;2024-03-22T13:48:55;17.50;;;3.30;;
19301;SDS011;9785;59.362;12.152;2024-03-22T13:51:24;11.30;;;2.13;;
19301;SDS011;9785;59.362;12.152;2024-03-22T13:53:54;13.77;;;2.63;;
19301;SDS011;9785;59.362;12.152;2024-03-22T13:56:22;14.53;;;2.70;;
19301;SDS011;9785;59.362;12.152;2024-03-22T13:58:48;8.57;;;2.00;;
19301;SDS011;9785;59.362;12.152;2024-03-22T14:01:16;15.07;;;3.03;;
19301;SDS011;9785;59.362;12.152;2024-03-22T14:03:42;10.37;;;2.40;;
19301;SDS011;9785;59.362;12.152;2024-03-22T14:06:10;9.57;;;2.40;;
19301;SDS011;9785;59.362;12.152;2024-03-22T14:08:37;9.37;;;1.37;;
19301;SDS011;9785;59.362;12.152;2024-03-22T14:11:06;20.30;;;2.63;;
19301;SDS011;9785;59.362;12.152;2024-03-22T14:13:32;10.80;;;2.03;;
19301;SDS011;9785;59.362;12.152;2024-03-22T14:16:00;16.20;;;2.63;;
19301;SDS011;9785;59.362;12.152;2024-03-22T14:18:27;11.57;;;1.93;;
19301;SDS011;9785;59.362;12.152;2024-03-22T14:20:55;4.63;;;1.47;;
19301;SDS011;9785;59.362;12.152;2024-03-22T14:23:21;10.47;;;2.10;;
19301;SDS011;9785;59.362;12.152;2024-03-22T14:25:49;12.73;;;2.30;;
19301;SDS011;9785;59.362;12.152;2024-03-22T14:28:17;7.87;;;2.07;;
19301;SDS011;9785;59.362;12.152;2024-03-22T14:30:44;8.67;;;1.80;;
19301;SDS011;9785;59.362;12.152;2024-03-22T14:33:11;5.63;;;1.50;;
19301;SDS011;9785;59.362;12.152;2024-03-22T14:35:39;3.03;;;1.00;;
19301;SDS011;9785;59.362;12.152;2024-03-22T14:38:05;5.97;;;0.90;;
19301;SDS011;9785;59.362;12.152;2024-03-22T14:40:33;4.80;;;1.40;;
19301;SDS011;9785;59.362;12.152;2024-03-22T14:43:02;6.27;;;1.10;;